Garden Spring, Nevada Weather observations

Data are for 10 minute period ending at time listed.
 Day   Time    Ave.   Ave.  Ave.  Vector   Max.   Stn.    Total    Solar   Ave.  
  of    of     Air    Rel.  Wind   Wind    Wind   Baro.  Precip.   Rad.    Soil  
Year   Day     Temp.  Hum.  Speed  Dir.    Gust   Pres.                    Temp. 
2026   (PST)    F      %     mph   deg.    mph     mb.     in.     W/m2     F    
--------------------------------------------------------------------------------- 
 125   20:20   55.1    30    3.4   278      4.9   848.4    0.00       0    71.8  
 125   20:30   55.3    30    3.0   256      6.2   848.5    0.00       0    71.7  
 125   20:40   56.0    30    3.4   283      9.2   848.6    0.00       0    71.5  
 125   20:50   55.6    31    3.3   277      7.4   848.7    0.00       0    71.4  
 125   21:00   56.2    30    3.0   277      5.4   848.7    0.00       0    71.2  
 125   21:10   56.0    31    3.3   288      6.0   848.8    0.00       0    71.0  
 125   21:20   55.6    32    3.9   282      7.8   848.8    0.00       0    70.7  
 125   21:30   56.1    31    3.6   271      7.9   848.8    0.00       0    70.6  
 125   21:40   56.4    31    4.3   266      8.2   848.9    0.00       0    70.4  
 125   21:50   56.3    31    4.6   267      9.2   849.0    0.00       0    70.2  
 125   22:00   56.2    31    5.1   269      9.3   849.0    0.00       0    70.0  
 125   22:10   56.6    30    6.3   253     12.1   849.0    0.00       0    69.8  
 125   22:20   56.6    30    6.2   255     11.5   849.0    0.00       0    69.7  
 125   22:30   56.8    29    8.8   245     14.8   849.0    0.00       0    69.5  
 125   22:40   56.8    29    7.1   268     13.8   849.1    0.00       0    69.5  
 125   22:50   55.2    31    5.8   281      8.8   849.3    0.00       0    69.2  
 125   23:00   54.2    32    5.6   287      7.9   849.3    0.00       0    68.9  
 125   23:10   53.4    33    5.2   280      7.2   849.3    0.00       0    68.6  
 125   23:20   53.2    34    5.8   285      9.2   849.3    0.00       0    68.4  
 125   23:30   53.0    34    6.4   289      9.2   849.3    0.00       0    68.3  
 125   23:40   53.0    34    6.6   287     10.0   849.3    0.00       0    68.1  
 125   23:50   52.9    34    7.0   278     11.1   849.3    0.00       0    68.0  
 126    0:00   52.6    35    6.4   279      9.3   849.3    0.00       0    67.8  
 126    0:10   52.3    36    5.9   288      8.4   849.4    0.00       0    67.7  
 126    0:20   52.0    37    5.4   277      7.9   849.5    0.00       0    67.5  
 126    0:30   51.9    37    5.1   271      8.7   849.5    0.00       0    67.4  
 126    0:40   51.8    38    5.3   272      9.2   849.5    0.00       0    67.2  
 126    0:50   51.9    38    5.9   272      9.2   849.5    0.00       0    67.1  
 126    1:00   51.5    39    5.3   273      8.4   849.5    0.00       0    66.9  
 126    1:10   51.4    39    5.0   273      7.9   849.6    0.00       0    66.8  
 126    1:20   51.4    40    4.7   274      7.5   849.6    0.00       0    66.6  
 126    1:30   51.5    39    5.0   271      7.6   849.6    0.00       0    66.5  
 126    1:40   51.7    39    5.3   267      7.6   849.7    0.00       0    66.4  
 126    1:50   51.8    39    5.8   263      9.8   849.6    0.00       0    66.3  
 126    2:00   52.6    38    6.1   257      9.8   849.7    0.00       0    66.2  
 126    2:10   52.1    39    5.2   276      8.0   849.8    0.00       0    66.0  
 126    2:20   51.2    40    5.0   275      7.0   849.9    0.00       0    65.8  
 126    2:30   50.8    41    5.3   277      8.2   850.0    0.00       0    65.7  
 126    2:40   50.8    41    5.3   276      7.6   850.0    0.00       0    65.5  
 126    2:50   50.8    41    4.5   270      6.8   850.0    0.00       0    65.4  
 126    3:00   49.9    43    4.9   298      6.6   850.0    0.00       0    65.2  
 126    3:10   49.4    44    5.2   292      7.1   850.1    0.00       0    65.0  
 126    3:20   49.3    44    4.8   279      7.0   850.3    0.00       0    64.9  
 126    3:30   50.1    43    4.9   267      7.4   850.3    0.00       0    64.8  
 126    3:40   50.3    43    4.6   268      7.3   850.3    0.00       0    64.7  
 126    3:50   50.4    42    4.5   284      7.3   850.3    0.00       0    64.6  
 126    4:00   49.5    44    4.9   292      6.9   850.4    0.00       0    64.5  
 126    4:10   49.7    44    5.0   294      6.4   850.4    0.00       0    64.3  
 126    4:20   49.9    43    4.6   297      6.5   850.5    0.00       0    64.2  
 126    4:30   49.7    44    4.2   276      5.4   850.7    0.00       1    64.1  
 126    4:40   48.4    46    2.6   248      5.5   850.8    0.00       4    63.9  
 126    4:50   48.0    46    3.5   260      4.6   851.0    0.00       9    63.7  
 126    5:00   46.8    49    3.3   260      5.1   851.1    0.00      24    63.6  
 126    5:10   47.1    50    2.3   285      4.9   851.1    0.00      47    63.5  
 126    5:20   50.1    44    3.3   223      5.4   851.1    0.00      79    63.6  
 126    5:30   53.2    38    3.5   184      5.2   851.3    0.00     116    64.1  
 126    5:40   54.8    36    2.4   150      3.8   851.5    0.00     148    64.5  
 126    5:50   56.4    34    1.3   117      3.0   851.6    0.00     180    64.5  
 126    6:00   57.3    33    2.3   130      4.1   851.8    0.00     215    64.5  
 126    6:10   58.2    32    2.0    28      6.2   851.9    0.00     251    64.4  
 126    6:20   59.5    31    2.9   302      7.0   852.1    0.00     286    64.3  
 126    6:30   58.9    31    3.4   286      7.9   852.2    0.00     321    64.3  
 126    6:40   59.3    31    3.0   279      6.0   852.3    0.00     358    64.1  
 126    6:50   59.8    31    3.6   276      6.2   852.4    0.00     394    63.9  
 126    7:00   60.5    30    3.4   266      8.9   852.5    0.00     430    63.6  
 126    7:10   61.4    30    2.8   265      6.5   852.6    0.00     466    63.6  
 126    7:20   62.3    29    3.2   169      8.7   852.6    0.00     502    63.6  
 126    7:30   62.0    29    5.4   120      9.5   852.6    0.00     537    63.6  
 126    7:40   62.3    29    5.2   120      9.2   852.6    0.00     571    63.6  
 126    7:50   62.4    28    5.4   140      8.8   852.7    0.00     605    63.5  
 126    8:00   63.0    28    5.0   133      8.7   852.7    0.00     639    63.5  
 126    8:10   63.6    28    5.0   137      9.7   852.7    0.00     672    63.5  
 126    8:20   64.0    28    6.2   143     12.8   852.7    0.00     704    63.5  
 126    8:30   64.5    27    5.6   148     10.3   852.7    0.00     736    63.5  
 126    8:40   64.7    27    6.8   155     10.8   852.7    0.00     764    63.6  
 126    8:50   65.2    26    6.7   154     12.4   852.8    0.00     796    63.7  
 126    9:00   65.5    26    7.0   156     11.7   852.8    0.00     836    63.8  
 126    9:10   66.2    26    6.8   123     12.4   852.9    0.00     888    64.0  
 126    9:20   66.4    26    7.2   140     13.0   852.9    0.00     932    64.3  
 126    9:30   67.1    25    7.1   155     14.4   853.0    0.00     960    64.6  
 126    9:40   66.8    26    6.4   146     13.0   853.0    0.00     907    64.7  
 126    9:50   67.9    25    6.3   152     12.9   853.1    0.00    1004    65.1  
 126   10:00   67.6    25    5.9   136     12.6   853.1    0.00     787    65.4  
 126   10:10   67.0    26    7.2   154     14.1   853.1    0.00     730    65.3  
 126   10:20   68.1    25    6.1   171     12.9   853.1    0.00     964    65.6  
 126   10:30   68.9    25    4.7   206     10.8   853.2    0.00    1033    66.2  
 126   10:40   68.3    25    6.4   166     14.5   853.1    0.00     590    66.4  
 126   10:50   68.3    25    5.0   164     10.8   853.2    0.00     595    66.2  
 126   11:00   69.6    25    6.6   199     13.5   853.0    0.00    1245    66.7  
 126   11:10   70.7    24    4.8   212     10.5   853.0    0.00     617    67.4  
 126   11:20   68.3    25    5.1   204     10.0   853.0    0.00     398    67.2  
 126   11:30   68.1    25    5.0   216     10.6   853.0    0.00     356    67.2  
 126   11:40   68.8    25    3.9   156      8.9   853.0    0.00     838    67.5  
 126   11:50   71.4    23    3.0    42      8.2   853.0    0.00    1065    68.2  
 126   12:00   71.7    22    5.4    55     11.7   853.0    0.00     573    68.7  
 126   12:10   70.7    23    4.6   167     11.4   852.8    0.00     827    68.7  
 126   12:20   72.7    22    5.3   193     10.6   852.8    0.00    1236    69.2  
 126   12:30   72.8    21    5.8   204      9.1   852.8    0.00     506    69.8  
 126   12:40   71.0    22    3.4   211      7.8   852.8    0.00     394    69.6  
 126   12:50   71.0    22    5.3   153     10.2   852.8    0.00     407    69.8  
 126   13:00   72.2    22    6.0   149     11.9   852.8    0.00    1071    70.1  
 126   13:10   73.7    20    5.0   210     10.0   852.8    0.00    1020    71.1  
 126   13:20   73.2    21    4.6   169     11.4   852.8    0.00    1103    71.5  
 126   13:30   74.2    20    4.6   121     10.6   852.7    0.00     871    71.9  
 126   13:40   75.8    19    6.5   115     12.4   852.7    0.00    1022    72.1  
 126   13:50   73.7    20    7.0   181     12.4   852.5    0.00     521    72.1  
 126   14:00   71.7    22    6.3   206     11.7   852.5    0.00     520    71.7  
 126   14:10   73.8    20    6.3   157     11.7   852.4    0.00     536    72.1  
 126   14:20   73.8    20    4.9   103     12.5   852.3    0.00     677    72.5  
 126   14:30   73.4    20    4.3   138     10.6   852.3    0.00     298    72.8  
 126   14:40   72.9    20    4.6   111      8.9   852.3    0.00     423    72.9  
 126   14:50   71.9    21    3.3   280      7.3   852.2    0.00     300    73.1  
 126   15:00   72.8    20    4.8   196      8.8   852.1    0.00     445    73.4  
 126   15:10   73.5    19    4.8   187      9.1   852.1    0.00     476    73.8  
 126   15:20   75.4    18    3.8   132      8.9   852.0    0.00     727    74.4  
 126   15:30   76.5    16    3.8   132      7.9   852.1    0.00     611    75.0  
 126   15:40   75.9    17    4.5   162      7.9   852.0    0.00     617    75.1  
 126   15:50   75.6    17    3.5   176      7.3   852.0    0.00     388    75.2  
 126   16:00   75.2    17    4.6   133      9.5   852.0    0.00     516    74.7  
 126   16:10   76.2    15    4.4    95     10.5   852.1    0.00     501    74.9  
 126   16:20   76.0    15    4.7    30     11.4   852.1    0.00     453    74.9  
 126   16:30   76.5    14    6.8    14     14.1   852.1    0.00     415    74.8  
 126   16:40   75.7    13    7.2    27     13.0   852.2    0.00     371    74.7  
 126   16:50   76.1    13    5.5    32     11.1   852.3    0.00     336    74.7  
 126   17:00   76.6    13    2.0    27      7.2   852.3    0.00     295    74.7  
 126   17:10   76.3    12    6.0    27     10.8   852.4    0.00     261    74.6  
 126   17:20   74.3    12    7.1    46     11.7   852.5    0.00     226    74.5  
 126   17:30   73.2    12    7.8    52     13.9   852.5    0.00     192    74.4  
 126   17:40   72.3    12    7.5    46     13.9   852.6    0.00     158    74.4  
 126   17:50   71.7    12    7.4    45     12.8   852.7    0.00     126    74.3  
 126   18:00   71.1    12    6.5    46     10.7   852.8    0.00      88    74.1  
 126   18:10   69.9    13    5.7    40      9.7   852.8    0.00      33    74.0  
 126   18:20   68.2    13    4.4    44      8.4   852.8    0.00      14    73.7  
 126   18:30   67.1    14    3.3    22     10.2   852.9    0.00       9    73.5  
 126   18:40   66.0    14    4.8     4      8.4   852.9    0.00       5    73.3  
 126   18:50   65.7    13    5.2     7      9.9   853.0    0.00       2    73.3  
 126   19:00   65.3    13    5.4     2      9.5   853.1    0.00       1    73.2  
 126   19:10   65.1    13    4.4   357      9.1   853.2    0.00       0    73.2  
 126   19:20   64.7    14    3.8     3      9.1   853.3    0.00       0    73.0  
 126   19:30   63.8    14    2.6    13      8.2   853.5    0.00       0    72.9  
 126   19:40   62.9    15    2.0    41      6.4   853.6    0.00       0    72.7  
 126   19:50   61.8    16    1.4   257      5.1   853.7    0.00       0    72.4  
 126   20:00   61.9    17    4.2   150      7.9   853.9    0.00       0    72.2  
 126   20:10   61.2    17    4.4   153      6.8   854.1    0.00       0    72.2  

Return to Garden Spring, Nevada graphs page.


Western Regional Climate Center,wrcc@dri.edu